sensor_id;sensor_type;location;lat;lon;timestamp;P1;durP1;ratioP1;P2;durP2;ratioP2
3698;SDS011;1865;50.918;7.092;2022-11-20T00:01:05;19.13;;;9.90;;
3698;SDS011;1865;50.918;7.092;2022-11-20T00:03:34;23.67;;;10.13;;
3698;SDS011;1865;50.918;7.092;2022-11-20T00:06:00;21.30;;;11.23;;
3698;SDS011;1865;50.918;7.092;2022-11-20T00:08:32;16.77;;;9.83;;
3698;SDS011;1865;50.918;7.092;2022-11-20T00:11:12;17.30;;;9.80;;
3698;SDS011;1865;50.918;7.092;2022-11-20T00:13:45;17.97;;;10.60;;
3698;SDS011;1865;50.918;7.092;2022-11-20T00:16:13;22.47;;;11.17;;
3698;SDS011;1865;50.918;7.092;2022-11-20T00:18:40;19.10;;;10.50;;
3698;SDS011;1865;50.918;7.092;2022-11-20T00:21:09;23.33;;;9.60;;
3698;SDS011;1865;50.918;7.092;2022-11-20T00:23:37;19.73;;;9.73;;
3698;SDS011;1865;50.918;7.092;2022-11-20T00:26:04;19.17;;;10.70;;
3698;SDS011;1865;50.918;7.092;2022-11-20T00:28:32;17.30;;;10.00;;
3698;SDS011;1865;50.918;7.092;2022-11-20T00:31:02;18.67;;;10.60;;
3698;SDS011;1865;50.918;7.092;2022-11-20T00:33:29;16.90;;;9.33;;
3698;SDS011;1865;50.918;7.092;2022-11-20T00:35:58;19.07;;;9.97;;
3698;SDS011;1865;50.918;7.092;2022-11-20T00:38:28;20.73;;;10.20;;
3698;SDS011;1865;50.918;7.092;2022-11-20T00:40:55;19.00;;;10.70;;
3698;SDS011;1865;50.918;7.092;2022-11-20T00:43:26;21.17;;;10.63;;
3698;SDS011;1865;50.918;7.092;2022-11-20T00:48:30;24.23;;;10.40;;
3698;SDS011;1865;50.918;7.092;2022-11-20T00:50:56;18.67;;;9.97;;
3698;SDS011;1865;50.918;7.092;2022-11-20T00:53:24;16.40;;;9.30;;
3698;SDS011;1865;50.918;7.092;2022-11-20T00:55:55;16.47;;;9.53;;
3698;SDS011;1865;50.918;7.092;2022-11-20T00:58:22;16.20;;;9.27;;
3698;SDS011;1865;50.918;7.092;2022-11-20T01:00:49;17.27;;;9.97;;
3698;SDS011;1865;50.918;7.092;2022-11-20T01:03:16;17.20;;;9.37;;
3698;SDS011;1865;50.918;7.092;2022-11-20T01:05:43;19.27;;;10.60;;
3698;SDS011;1865;50.918;7.092;2022-11-20T01:08:09;17.97;;;10.23;;
3698;SDS011;1865;50.918;7.092;2022-11-20T01:10:34;16.17;;;8.67;;
3698;SDS011;1865;50.918;7.092;2022-11-20T01:13:00;19.90;;;9.63;;
3698;SDS011;1865;50.918;7.092;2022-11-20T01:15:44;18.03;;;9.83;;
3698;SDS011;1865;50.918;7.092;2022-11-20T01:18:09;16.90;;;9.60;;
3698;SDS011;1865;50.918;7.092;2022-11-20T01:20:36;19.67;;;9.80;;
3698;SDS011;1865;50.918;7.092;2022-11-20T01:23:02;17.47;;;9.23;;
3698;SDS011;1865;50.918;7.092;2022-11-20T01:25:28;17.70;;;9.93;;
3698;SDS011;1865;50.918;7.092;2022-11-20T01:27:58;17.60;;;9.90;;
3698;SDS011;1865;50.918;7.092;2022-11-20T01:30:23;20.97;;;10.47;;
3698;SDS011;1865;50.918;7.092;2022-11-20T01:32:49;17.33;;;10.10;;
3698;SDS011;1865;50.918;7.092;2022-11-20T01:35:15;23.30;;;10.80;;
3698;SDS011;1865;50.918;7.092;2022-11-20T01:37:40;17.67;;;10.10;;
3698;SDS011;1865;50.918;7.092;2022-11-20T01:40:06;18.07;;;9.43;;
3698;SDS011;1865;50.918;7.092;2022-11-20T01:42:33;19.90;;;10.40;;
3698;SDS011;1865;50.918;7.092;2022-11-20T01:48:18;17.00;;;9.80;;
3698;SDS011;1865;50.918;7.092;2022-11-20T01:50:47;20.70;;;10.87;;
3698;SDS011;1865;50.918;7.092;2022-11-20T01:53:14;21.13;;;11.23;;
3698;SDS011;1865;50.918;7.092;2022-11-20T01:55:48;19.67;;;11.90;;
3698;SDS011;1865;50.918;7.092;2022-11-20T01:58:33;19.60;;;10.70;;
3698;SDS011;1865;50.918;7.092;2022-11-20T02:01:02;20.27;;;10.13;;
3698;SDS011;1865;50.918;7.092;2022-11-20T02:03:29;17.57;;;9.60;;
3698;SDS011;1865;50.918;7.092;2022-11-20T02:06:10;20.50;;;10.30;;
3698;SDS011;1865;50.918;7.092;2022-11-20T02:08:41;17.43;;;9.50;;
3698;SDS011;1865;50.918;7.092;2022-11-20T02:11:07;19.47;;;11.13;;
3698;SDS011;1865;50.918;7.092;2022-11-20T02:13:33;20.90;;;11.30;;
3698;SDS011;1865;50.918;7.092;2022-11-20T02:16:20;18.90;;;9.53;;
3698;SDS011;1865;50.918;7.092;2022-11-20T02:18:48;17.57;;;10.17;;
3698;SDS011;1865;50.918;7.092;2022-11-20T02:21:17;15.60;;;8.90;;
3698;SDS011;1865;50.918;7.092;2022-11-20T02:26:31;17.27;;;10.60;;
3698;SDS011;1865;50.918;7.092;2022-11-20T02:29:09;17.80;;;9.90;;
3698;SDS011;1865;50.918;7.092;2022-11-20T02:31:37;17.20;;;9.50;;
3698;SDS011;1865;50.918;7.092;2022-11-20T02:34:05;18.37;;;10.10;;
3698;SDS011;1865;50.918;7.092;2022-11-20T02:36:30;18.00;;;9.47;;
3698;SDS011;1865;50.918;7.092;2022-11-20T02:38:58;18.87;;;9.90;;
3698;SDS011;1865;50.918;7.092;2022-11-20T02:41:30;17.83;;;9.87;;
3698;SDS011;1865;50.918;7.092;2022-11-20T02:43:57;18.23;;;10.00;;
3698;SDS011;1865;50.918;7.092;2022-11-20T02:46:22;22.77;;;11.13;;
3698;SDS011;1865;50.918;7.092;2022-11-20T02:48:48;17.80;;;10.80;;
3698;SDS011;1865;50.918;7.092;2022-11-20T02:51:13;19.87;;;10.60;;
3698;SDS011;1865;50.918;7.092;2022-11-20T02:53:39;19.03;;;10.57;;
3698;SDS011;1865;50.918;7.092;2022-11-20T02:56:05;16.57;;;9.83;;
3698;SDS011;1865;50.918;7.092;2022-11-20T02:58:31;16.07;;;9.63;;
3698;SDS011;1865;50.918;7.092;2022-11-20T03:01:00;17.93;;;10.30;;
3698;SDS011;1865;50.918;7.092;2022-11-20T03:03:25;17.00;;;10.30;;
3698;SDS011;1865;50.918;7.092;2022-11-20T03:05:51;17.87;;;9.90;;
3698;SDS011;1865;50.918;7.092;2022-11-20T03:08:18;18.13;;;9.47;;
3698;SDS011;1865;50.918;7.092;2022-11-20T03:10:43;16.97;;;9.87;;
3698;SDS011;1865;50.918;7.092;2022-11-20T03:13:09;16.20;;;9.87;;
3698;SDS011;1865;50.918;7.092;2022-11-20T03:15:36;17.57;;;10.00;;
3698;SDS011;1865;50.918;7.092;2022-11-20T03:18:02;17.00;;;10.07;;
3698;SDS011;1865;50.918;7.092;2022-11-20T03:20:28;20.30;;;10.80;;
3698;SDS011;1865;50.918;7.092;2022-11-20T03:22:54;16.63;;;9.27;;
3698;SDS011;1865;50.918;7.092;2022-11-20T03:25:20;19.20;;;10.40;;
3698;SDS011;1865;50.918;7.092;2022-11-20T03:27:46;16.90;;;9.47;;
3698;SDS011;1865;50.918;7.092;2022-11-20T03:30:11;20.73;;;10.00;;
3698;SDS011;1865;50.918;7.092;2022-11-20T03:32:37;16.10;;;9.23;;
3698;SDS011;1865;50.918;7.092;2022-11-20T03:35:03;19.37;;;9.70;;
3698;SDS011;1865;50.918;7.092;2022-11-20T03:37:29;18.43;;;8.80;;
3698;SDS011;1865;50.918;7.092;2022-11-20T03:39:54;17.30;;;9.77;;
3698;SDS011;1865;50.918;7.092;2022-11-20T03:42:19;17.53;;;10.37;;
3698;SDS011;1865;50.918;7.092;2022-11-20T03:45:20;18.50;;;9.80;;
3698;SDS011;1865;50.918;7.092;2022-11-20T03:47:47;18.47;;;9.70;;
3698;SDS011;1865;50.918;7.092;2022-11-20T03:50:14;17.13;;;9.50;;
3698;SDS011;1865;50.918;7.092;2022-11-20T03:52:40;18.20;;;10.30;;
3698;SDS011;1865;50.918;7.092;2022-11-20T03:55:06;14.57;;;8.60;;
3698;SDS011;1865;50.918;7.092;2022-11-20T03:57:33;19.07;;;9.73;;
3698;SDS011;1865;50.918;7.092;2022-11-20T04:00:00;18.27;;;9.77;;
3698;SDS011;1865;50.918;7.092;2022-11-20T04:02:25;18.77;;;10.10;;
3698;SDS011;1865;50.918;7.092;2022-11-20T04:04:51;15.87;;;9.30;;
3698;SDS011;1865;50.918;7.092;2022-11-20T04:07:17;21.20;;;11.63;;
3698;SDS011;1865;50.918;7.092;2022-11-20T04:09:43;18.53;;;9.90;;
3698;SDS011;1865;50.918;7.092;2022-11-20T04:12:08;17.50;;;10.30;;
3698;SDS011;1865;50.918;7.092;2022-11-20T04:14:34;18.97;;;9.63;;
3698;SDS011;1865;50.918;7.092;2022-11-20T04:16:59;17.23;;;9.70;;
3698;SDS011;1865;50.918;7.092;2022-11-20T04:19:25;17.33;;;10.23;;
3698;SDS011;1865;50.918;7.092;2022-11-20T04:21:50;19.33;;;10.40;;
3698;SDS011;1865;50.918;7.092;2022-11-20T04:24:16;23.37;;;10.73;;
3698;SDS011;1865;50.918;7.092;2022-11-20T04:26:42;22.83;;;10.53;;
3698;SDS011;1865;50.918;7.092;2022-11-20T04:29:09;19.30;;;11.20;;
3698;SDS011;1865;50.918;7.092;2022-11-20T04:31:36;16.57;;;9.80;;
3698;SDS011;1865;50.918;7.092;2022-11-20T04:34:02;22.90;;;10.57;;
3698;SDS011;1865;50.918;7.092;2022-11-20T04:36:29;20.23;;;10.70;;
3698;SDS011;1865;50.918;7.092;2022-11-20T04:38:55;20.23;;;9.63;;
3698;SDS011;1865;50.918;7.092;2022-11-20T04:41:23;19.10;;;10.27;;
3698;SDS011;1865;50.918;7.092;2022-11-20T04:43:54;18.63;;;9.20;;
3698;SDS011;1865;50.918;7.092;2022-11-20T04:46:24;19.00;;;10.60;;
3698;SDS011;1865;50.918;7.092;2022-11-20T04:48:50;19.97;;;10.23;;
3698;SDS011;1865;50.918;7.092;2022-11-20T04:51:16;22.93;;;10.70;;
3698;SDS011;1865;50.918;7.092;2022-11-20T04:53:41;16.40;;;9.83;;
3698;SDS011;1865;50.918;7.092;2022-11-20T04:56:09;19.53;;;10.63;;
3698;SDS011;1865;50.918;7.092;2022-11-20T04:58:38;18.87;;;11.40;;
3698;SDS011;1865;50.918;7.092;2022-11-20T05:01:05;18.10;;;10.63;;
3698;SDS011;1865;50.918;7.092;2022-11-20T05:03:32;20.90;;;10.60;;
3698;SDS011;1865;50.918;7.092;2022-11-20T05:06:01;18.93;;;10.37;;
3698;SDS011;1865;50.918;7.092;2022-11-20T05:08:27;21.20;;;10.60;;
3698;SDS011;1865;50.918;7.092;2022-11-20T05:10:53;19.63;;;10.80;;
3698;SDS011;1865;50.918;7.092;2022-11-20T05:13:23;19.97;;;11.00;;
3698;SDS011;1865;50.918;7.092;2022-11-20T05:15:49;20.00;;;10.87;;
3698;SDS011;1865;50.918;7.092;2022-11-20T05:18:16;21.80;;;11.17;;
3698;SDS011;1865;50.918;7.092;2022-11-20T05:20:42;18.03;;;9.90;;
3698;SDS011;1865;50.918;7.092;2022-11-20T05:23:07;22.60;;;10.67;;
3698;SDS011;1865;50.918;7.092;2022-11-20T05:25:33;19.03;;;10.90;;
3698;SDS011;1865;50.918;7.092;2022-11-20T05:27:59;20.57;;;9.87;;
3698;SDS011;1865;50.918;7.092;2022-11-20T05:30:25;18.93;;;10.90;;
3698;SDS011;1865;50.918;7.092;2022-11-20T05:32:52;19.90;;;10.50;;
3698;SDS011;1865;50.918;7.092;2022-11-20T05:35:18;19.53;;;10.23;;
3698;SDS011;1865;50.918;7.092;2022-11-20T05:37:44;18.30;;;10.20;;
3698;SDS011;1865;50.918;7.092;2022-11-20T05:40:11;19.67;;;10.70;;
3698;SDS011;1865;50.918;7.092;2022-11-20T05:42:36;19.37;;;10.80;;
3698;SDS011;1865;50.918;7.092;2022-11-20T05:45:03;21.77;;;9.70;;
3698;SDS011;1865;50.918;7.092;2022-11-20T05:47:33;18.77;;;10.37;;
3698;SDS011;1865;50.918;7.092;2022-11-20T05:50:01;18.17;;;10.10;;
3698;SDS011;1865;50.918;7.092;2022-11-20T05:52:30;21.53;;;10.63;;
3698;SDS011;1865;50.918;7.092;2022-11-20T05:54:56;17.90;;;9.90;;
3698;SDS011;1865;50.918;7.092;2022-11-20T05:57:22;19.40;;;11.50;;
3698;SDS011;1865;50.918;7.092;2022-11-20T05:59:47;19.10;;;10.77;;
3698;SDS011;1865;50.918;7.092;2022-11-20T06:02:14;18.47;;;10.83;;
3698;SDS011;1865;50.918;7.092;2022-11-20T06:04:39;19.43;;;11.57;;
3698;SDS011;1865;50.918;7.092;2022-11-20T06:07:05;19.20;;;10.73;;
3698;SDS011;1865;50.918;7.092;2022-11-20T06:09:33;23.67;;;11.63;;
3698;SDS011;1865;50.918;7.092;2022-11-20T06:11:59;20.67;;;11.40;;
3698;SDS011;1865;50.918;7.092;2022-11-20T06:14:26;22.53;;;10.40;;
3698;SDS011;1865;50.918;7.092;2022-11-20T06:16:51;17.80;;;9.87;;
3698;SDS011;1865;50.918;7.092;2022-11-20T06:19:17;18.60;;;10.67;;
3698;SDS011;1865;50.918;7.092;2022-11-20T06:21:42;21.60;;;11.67;;
3698;SDS011;1865;50.918;7.092;2022-11-20T06:24:11;17.47;;;9.77;;
3698;SDS011;1865;50.918;7.092;2022-11-20T06:26:38;20.53;;;11.17;;
3698;SDS011;1865;50.918;7.092;2022-11-20T06:29:04;17.20;;;10.30;;
3698;SDS011;1865;50.918;7.092;2022-11-20T06:31:30;19.27;;;11.13;;
3698;SDS011;1865;50.918;7.092;2022-11-20T06:33:59;17.00;;;10.03;;
3698;SDS011;1865;50.918;7.092;2022-11-20T06:36:25;18.13;;;9.93;;
3698;SDS011;1865;50.918;7.092;2022-11-20T06:38:51;17.70;;;10.27;;
3698;SDS011;1865;50.918;7.092;2022-11-20T06:41:18;25.20;;;9.83;;
3698;SDS011;1865;50.918;7.092;2022-11-20T06:43:45;21.50;;;10.83;;
3698;SDS011;1865;50.918;7.092;2022-11-20T06:46:11;19.70;;;11.20;;
3698;SDS011;1865;50.918;7.092;2022-11-20T06:48:38;19.37;;;10.53;;
3698;SDS011;1865;50.918;7.092;2022-11-20T06:51:04;21.50;;;11.90;;
3698;SDS011;1865;50.918;7.092;2022-11-20T06:53:31;22.63;;;12.17;;
3698;SDS011;1865;50.918;7.092;2022-11-20T06:55:57;19.57;;;11.07;;
3698;SDS011;1865;50.918;7.092;2022-11-20T06:58:22;19.90;;;10.67;;
3698;SDS011;1865;50.918;7.092;2022-11-20T07:00:50;21.23;;;11.97;;
3698;SDS011;1865;50.918;7.092;2022-11-20T07:03:16;20.40;;;11.50;;
3698;SDS011;1865;50.918;7.092;2022-11-20T07:05:41;22.20;;;12.00;;
3698;SDS011;1865;50.918;7.092;2022-11-20T07:08:10;20.37;;;11.37;;
3698;SDS011;1865;50.918;7.092;2022-11-20T07:10:36;23.70;;;12.03;;
3698;SDS011;1865;50.918;7.092;2022-11-20T07:13:03;23.00;;;11.73;;
3698;SDS011;1865;50.918;7.092;2022-11-20T07:15:29;19.63;;;11.37;;
3698;SDS011;1865;50.918;7.092;2022-11-20T07:17:58;20.83;;;11.97;;
3698;SDS011;1865;50.918;7.092;2022-11-20T07:20:24;26.83;;;11.97;;
3698;SDS011;1865;50.918;7.092;2022-11-20T07:22:53;24.23;;;12.40;;
3698;SDS011;1865;50.918;7.092;2022-11-20T07:25:20;24.03;;;12.93;;
3698;SDS011;1865;50.918;7.092;2022-11-20T07:27:45;22.43;;;12.00;;
3698;SDS011;1865;50.918;7.092;2022-11-20T07:30:11;23.70;;;12.17;;
3698;SDS011;1865;50.918;7.092;2022-11-20T07:32:38;24.23;;;12.07;;
3698;SDS011;1865;50.918;7.092;2022-11-20T07:35:04;20.47;;;11.37;;
3698;SDS011;1865;50.918;7.092;2022-11-20T07:37:35;21.20;;;11.43;;
3698;SDS011;1865;50.918;7.092;2022-11-20T07:40:00;28.13;;;13.20;;
3698;SDS011;1865;50.918;7.092;2022-11-20T07:42:26;23.70;;;13.10;;
3698;SDS011;1865;50.918;7.092;2022-11-20T07:44:52;24.20;;;12.50;;
3698;SDS011;1865;50.918;7.092;2022-11-20T07:47:17;27.40;;;14.53;;
3698;SDS011;1865;50.918;7.092;2022-11-20T07:49:43;23.97;;;13.67;;
3698;SDS011;1865;50.918;7.092;2022-11-20T07:52:08;36.50;;;19.53;;
3698;SDS011;1865;50.918;7.092;2022-11-20T07:54:34;34.13;;;18.17;;
3698;SDS011;1865;50.918;7.092;2022-11-20T07:56:59;39.87;;;21.37;;
3698;SDS011;1865;50.918;7.092;2022-11-20T07:59:25;21.23;;;11.20;;
3698;SDS011;1865;50.918;7.092;2022-11-20T08:01:50;22.53;;;11.73;;
3698;SDS011;1865;50.918;7.092;2022-11-20T08:04:16;19.43;;;10.50;;
3698;SDS011;1865;50.918;7.092;2022-11-20T08:06:42;25.50;;;13.47;;
3698;SDS011;1865;50.918;7.092;2022-11-20T08:09:07;21.90;;;12.50;;
3698;SDS011;1865;50.918;7.092;2022-11-20T08:11:33;24.73;;;13.73;;
3698;SDS011;1865;50.918;7.092;2022-11-20T08:14:17;27.73;;;17.23;;
3698;SDS011;1865;50.918;7.092;2022-11-20T08:16:44;24.27;;;14.83;;
3698;SDS011;1865;50.918;7.092;2022-11-20T08:19:12;27.33;;;16.47;;
3698;SDS011;1865;50.918;7.092;2022-11-20T08:21:38;20.40;;;11.83;;
3698;SDS011;1865;50.918;7.092;2022-11-20T08:24:06;26.47;;;14.33;;
3698;SDS011;1865;50.918;7.092;2022-11-20T08:26:33;27.90;;;13.60;;
3698;SDS011;1865;50.918;7.092;2022-11-20T08:29:03;23.23;;;12.40;;
3698;SDS011;1865;50.918;7.092;2022-11-20T08:31:31;24.50;;;13.53;;
3698;SDS011;1865;50.918;7.092;2022-11-20T08:33:57;19.80;;;11.10;;
3698;SDS011;1865;50.918;7.092;2022-11-20T08:36:24;25.43;;;12.17;;
3698;SDS011;1865;50.918;7.092;2022-11-20T08:38:50;30.20;;;13.30;;
3698;SDS011;1865;50.918;7.092;2022-11-20T08:41:17;22.03;;;12.80;;
3698;SDS011;1865;50.918;7.092;2022-11-20T08:43:50;25.90;;;12.73;;
3698;SDS011;1865;50.918;7.092;2022-11-20T08:46:18;24.70;;;15.40;;
3698;SDS011;1865;50.918;7.092;2022-11-20T08:48:44;24.03;;;14.03;;
3698;SDS011;1865;50.918;7.092;2022-11-20T08:51:10;25.23;;;13.87;;
3698;SDS011;1865;50.918;7.092;2022-11-20T08:53:37;26.40;;;13.73;;
3698;SDS011;1865;50.918;7.092;2022-11-20T08:56:04;21.80;;;12.97;;
3698;SDS011;1865;50.918;7.092;2022-11-20T08:58:30;26.63;;;13.27;;
3698;SDS011;1865;50.918;7.092;2022-11-20T09:00:56;28.30;;;13.70;;
3698;SDS011;1865;50.918;7.092;2022-11-20T09:03:21;27.20;;;15.30;;
3698;SDS011;1865;50.918;7.092;2022-11-20T09:05:47;25.90;;;13.33;;
3698;SDS011;1865;50.918;7.092;2022-11-20T09:08:13;23.30;;;13.00;;
3698;SDS011;1865;50.918;7.092;2022-11-20T09:10:38;24.20;;;13.10;;
3698;SDS011;1865;50.918;7.092;2022-11-20T09:13:07;27.70;;;13.73;;
3698;SDS011;1865;50.918;7.092;2022-11-20T09:15:34;23.57;;;13.50;;
3698;SDS011;1865;50.918;7.092;2022-11-20T09:18:00;23.80;;;13.50;;
3698;SDS011;1865;50.918;7.092;2022-11-20T09:20:27;25.57;;;14.10;;
3698;SDS011;1865;50.918;7.092;2022-11-20T09:22:54;27.50;;;14.03;;
3698;SDS011;1865;50.918;7.092;2022-11-20T09:25:22;22.60;;;13.43;;
3698;SDS011;1865;50.918;7.092;2022-11-20T09:27:47;26.53;;;14.93;;
3698;SDS011;1865;50.918;7.092;2022-11-20T09:30:25;26.30;;;14.07;;
3698;SDS011;1865;50.918;7.092;2022-11-20T09:32:51;28.73;;;15.10;;
3698;SDS011;1865;50.918;7.092;2022-11-20T09:35:17;29.93;;;14.73;;
3698;SDS011;1865;50.918;7.092;2022-11-20T09:37:43;28.53;;;15.00;;
3698;SDS011;1865;50.918;7.092;2022-11-20T09:40:18;26.37;;;13.97;;
3698;SDS011;1865;50.918;7.092;2022-11-20T09:42:45;26.03;;;14.77;;
3698;SDS011;1865;50.918;7.092;2022-11-20T09:45:28;26.37;;;14.63;;
3698;SDS011;1865;50.918;7.092;2022-11-20T09:48:08;29.40;;;15.43;;
3698;SDS011;1865;50.918;7.092;2022-11-20T09:53:30;22.93;;;13.33;;
3698;SDS011;1865;50.918;7.092;2022-11-20T09:56:00;25.67;;;13.83;;
3698;SDS011;1865;50.918;7.092;2022-11-20T09:58:29;27.87;;;14.53;;
3698;SDS011;1865;50.918;7.092;2022-11-20T10:01:12;24.50;;;13.57;;
3698;SDS011;1865;50.918;7.092;2022-11-20T10:03:58;26.10;;;13.47;;
3698;SDS011;1865;50.918;7.092;2022-11-20T10:06:31;24.80;;;14.27;;
3698;SDS011;1865;50.918;7.092;2022-11-20T10:09:05;29.47;;;14.70;;
3698;SDS011;1865;50.918;7.092;2022-11-20T10:17:31;31.30;;;14.50;;
3698;SDS011;1865;50.918;7.092;2022-11-20T10:23:11;25.40;;;13.03;;
3698;SDS011;1865;50.918;7.092;2022-11-20T10:28:40;26.53;;;13.13;;
3698;SDS011;1865;50.918;7.092;2022-11-20T10:33:56;30.53;;;15.47;;
3698;SDS011;1865;50.918;7.092;2022-11-20T10:36:26;26.07;;;14.20;;
3698;SDS011;1865;50.918;7.092;2022-11-20T10:38:59;31.30;;;16.20;;
3698;SDS011;1865;50.918;7.092;2022-11-20T10:41:32;27.20;;;14.57;;
3698;SDS011;1865;50.918;7.092;2022-11-20T10:44:10;31.03;;;14.77;;
3698;SDS011;1865;50.918;7.092;2022-11-20T10:46:48;28.50;;;14.23;;
3698;SDS011;1865;50.918;7.092;2022-11-20T10:49:14;28.37;;;14.43;;
3698;SDS011;1865;50.918;7.092;2022-11-20T10:51:52;27.77;;;14.83;;
3698;SDS011;1865;50.918;7.092;2022-11-20T10:57:15;26.37;;;14.67;;
3698;SDS011;1865;50.918;7.092;2022-11-20T11:02:31;27.87;;;14.63;;
3698;SDS011;1865;50.918;7.092;2022-11-20T11:07:50;30.13;;;15.70;;
3698;SDS011;1865;50.918;7.092;2022-11-20T11:13:06;25.03;;;13.97;;
3698;SDS011;1865;50.918;7.092;2022-11-20T11:15:37;26.90;;;14.97;;
3698;SDS011;1865;50.918;7.092;2022-11-20T11:18:05;26.83;;;14.50;;
3698;SDS011;1865;50.918;7.092;2022-11-20T11:20:36;25.73;;;14.67;;
3698;SDS011;1865;50.918;7.092;2022-11-20T11:23:01;28.87;;;14.33;;
3698;SDS011;1865;50.918;7.092;2022-11-20T11:25:32;23.90;;;13.73;;
3698;SDS011;1865;50.918;7.092;2022-11-20T11:28:02;27.97;;;15.57;;
3698;SDS011;1865;50.918;7.092;2022-11-20T11:30:43;27.33;;;13.77;;
3698;SDS011;1865;50.918;7.092;2022-11-20T11:33:10;28.40;;;14.63;;
3698;SDS011;1865;50.918;7.092;2022-11-20T11:35:59;26.87;;;14.73;;
3698;SDS011;1865;50.918;7.092;2022-11-20T11:38:32;23.70;;;14.17;;
3698;SDS011;1865;50.918;7.092;2022-11-20T11:41:03;24.80;;;13.27;;
3698;SDS011;1865;50.918;7.092;2022-11-20T11:43:32;25.80;;;14.17;;
3698;SDS011;1865;50.918;7.092;2022-11-20T11:51:36;25.07;;;13.20;;
3698;SDS011;1865;50.918;7.092;2022-11-20T11:54:14;27.10;;;12.90;;
3698;SDS011;1865;50.918;7.092;2022-11-20T11:56:45;25.43;;;13.70;;
3698;SDS011;1865;50.918;7.092;2022-11-20T11:59:12;26.10;;;13.23;;
3698;SDS011;1865;50.918;7.092;2022-11-20T12:01:50;23.90;;;13.53;;
3698;SDS011;1865;50.918;7.092;2022-11-20T12:06:57;24.83;;;13.07;;
3698;SDS011;1865;50.918;7.092;2022-11-20T12:09:28;27.40;;;13.93;;
3698;SDS011;1865;50.918;7.092;2022-11-20T12:12:05;28.33;;;13.60;;
3698;SDS011;1865;50.918;7.092;2022-11-20T12:14:37;28.40;;;14.80;;
3698;SDS011;1865;50.918;7.092;2022-11-20T12:17:12;23.80;;;12.50;;
3698;SDS011;1865;50.918;7.092;2022-11-20T12:19:40;29.07;;;14.80;;
3698;SDS011;1865;50.918;7.092;2022-11-20T12:25:19;25.33;;;12.70;;
3698;SDS011;1865;50.918;7.092;2022-11-20T12:28:01;27.50;;;14.23;;
3698;SDS011;1865;50.918;7.092;2022-11-20T12:30:41;26.80;;;13.53;;
3698;SDS011;1865;50.918;7.092;2022-11-20T12:36:19;28.93;;;13.30;;
3698;SDS011;1865;50.918;7.092;2022-11-20T12:39:46;24.80;;;12.93;;
3698;SDS011;1865;50.918;7.092;2022-11-20T12:48:19;24.43;;;12.47;;
3698;SDS011;1865;50.918;7.092;2022-11-20T13:07:50;22.53;;;11.83;;
3698;SDS011;1865;50.918;7.092;2022-11-20T13:10:33;24.37;;;13.10;;
3698;SDS011;1865;50.918;7.092;2022-11-20T13:13:14;29.50;;;13.30;;
3698;SDS011;1865;50.918;7.092;2022-11-20T13:15:51;26.17;;;12.27;;
3698;SDS011;1865;50.918;7.092;2022-11-20T13:18:25;24.27;;;12.03;;
3698;SDS011;1865;50.918;7.092;2022-11-20T13:20:52;23.63;;;12.20;;
3698;SDS011;1865;50.918;7.092;2022-11-20T13:23:24;22.60;;;11.77;;
3698;SDS011;1865;50.918;7.092;2022-11-20T13:25:52;23.33;;;11.80;;
3698;SDS011;1865;50.918;7.092;2022-11-20T13:28:29;26.10;;;13.53;;
3698;SDS011;1865;50.918;7.092;2022-11-20T13:30:57;24.20;;;11.67;;
3698;SDS011;1865;50.918;7.092;2022-11-20T13:33:33;26.13;;;12.77;;
3698;SDS011;1865;50.918;7.092;2022-11-20T13:36:07;26.03;;;12.33;;
3698;SDS011;1865;50.918;7.092;2022-11-20T13:38:50;23.10;;;11.90;;
3698;SDS011;1865;50.918;7.092;2022-11-20T13:41:32;27.43;;;12.87;;
3698;SDS011;1865;50.918;7.092;2022-11-20T13:46:36;24.73;;;12.10;;
3698;SDS011;1865;50.918;7.092;2022-11-20T13:49:07;27.00;;;13.00;;
3698;SDS011;1865;50.918;7.092;2022-11-20T13:51:40;25.03;;;12.80;;
3698;SDS011;1865;50.918;7.092;2022-11-20T14:02:41;25.17;;;12.33;;
3698;SDS011;1865;50.918;7.092;2022-11-20T14:07:47;22.90;;;13.00;;
3698;SDS011;1865;50.918;7.092;2022-11-20T14:10:25;24.50;;;12.97;;
3698;SDS011;1865;50.918;7.092;2022-11-20T14:12:52;26.70;;;12.70;;
3698;SDS011;1865;50.918;7.092;2022-11-20T14:15:31;24.00;;;13.20;;
3698;SDS011;1865;50.918;7.092;2022-11-20T14:17:58;26.53;;;13.50;;
3698;SDS011;1865;50.918;7.092;2022-11-20T14:20:26;26.10;;;13.07;;
3698;SDS011;1865;50.918;7.092;2022-11-20T14:22:56;24.53;;;12.80;;
3698;SDS011;1865;50.918;7.092;2022-11-20T14:25:23;31.60;;;14.03;;
3698;SDS011;1865;50.918;7.092;2022-11-20T14:30:20;28.43;;;15.03;;
3698;SDS011;1865;50.918;7.092;2022-11-20T14:32:48;25.13;;;13.77;;
3698;SDS011;1865;50.918;7.092;2022-11-20T14:35:16;22.23;;;11.53;;
3698;SDS011;1865;50.918;7.092;2022-11-20T14:37:46;27.20;;;12.20;;
3698;SDS011;1865;50.918;7.092;2022-11-20T14:42:52;24.57;;;11.80;;
3698;SDS011;1865;50.918;7.092;2022-11-20T14:45:18;25.10;;;13.17;;
3698;SDS011;1865;50.918;7.092;2022-11-20T14:47:45;28.07;;;13.07;;
3698;SDS011;1865;50.918;7.092;2022-11-20T14:50:22;24.20;;;12.77;;
3698;SDS011;1865;50.918;7.092;2022-11-20T14:52:52;25.07;;;13.40;;
3698;SDS011;1865;50.918;7.092;2022-11-20T14:55:33;23.93;;;13.27;;
3698;SDS011;1865;50.918;7.092;2022-11-20T14:58:02;24.57;;;12.10;;
3698;SDS011;1865;50.918;7.092;2022-11-20T15:00:53;31.20;;;14.40;;
3698;SDS011;1865;50.918;7.092;2022-11-20T15:03:23;24.63;;;11.77;;
3698;SDS011;1865;50.918;7.092;2022-11-20T15:06:05;26.03;;;13.30;;
3698;SDS011;1865;50.918;7.092;2022-11-20T15:08:33;26.70;;;13.67;;
3698;SDS011;1865;50.918;7.092;2022-11-20T15:10:59;25.77;;;13.10;;
3698;SDS011;1865;50.918;7.092;2022-11-20T15:13:29;28.37;;;13.67;;
3698;SDS011;1865;50.918;7.092;2022-11-20T15:15:57;26.53;;;13.53;;
3698;SDS011;1865;50.918;7.092;2022-11-20T15:18:27;26.87;;;13.43;;
3698;SDS011;1865;50.918;7.092;2022-11-20T15:20:55;27.13;;;12.57;;
3698;SDS011;1865;50.918;7.092;2022-11-20T15:23:22;25.00;;;12.93;;
3698;SDS011;1865;50.918;7.092;2022-11-20T15:25:48;25.73;;;13.57;;
3698;SDS011;1865;50.918;7.092;2022-11-20T15:28:30;27.37;;;12.87;;
3698;SDS011;1865;50.918;7.092;2022-11-20T15:31:00;29.57;;;13.10;;
3698;SDS011;1865;50.918;7.092;2022-11-20T15:33:27;25.70;;;13.33;;
3698;SDS011;1865;50.918;7.092;2022-11-20T15:35:52;24.40;;;12.20;;
3698;SDS011;1865;50.918;7.092;2022-11-20T15:38:18;27.90;;;12.90;;
3698;SDS011;1865;50.918;7.092;2022-11-20T15:40:44;24.40;;;13.10;;
3698;SDS011;1865;50.918;7.092;2022-11-20T15:43:09;26.87;;;13.13;;
3698;SDS011;1865;50.918;7.092;2022-11-20T15:45:39;22.50;;;12.20;;
3698;SDS011;1865;50.918;7.092;2022-11-20T15:48:11;23.10;;;12.60;;
3698;SDS011;1865;50.918;7.092;2022-11-20T15:50:59;28.80;;;12.93;;
3698;SDS011;1865;50.918;7.092;2022-11-20T15:53:36;26.00;;;12.50;;
3698;SDS011;1865;50.918;7.092;2022-11-20T15:56:08;25.53;;;12.67;;
3698;SDS011;1865;50.918;7.092;2022-11-20T15:58:37;25.70;;;13.00;;
3698;SDS011;1865;50.918;7.092;2022-11-20T16:01:02;25.53;;;13.70;;
3698;SDS011;1865;50.918;7.092;2022-11-20T16:03:28;21.63;;;11.40;;
3698;SDS011;1865;50.918;7.092;2022-11-20T16:05:53;23.93;;;13.20;;
3698;SDS011;1865;50.918;7.092;2022-11-20T16:08:22;28.33;;;12.80;;
3698;SDS011;1865;50.918;7.092;2022-11-20T16:10:48;25.57;;;12.20;;
3698;SDS011;1865;50.918;7.092;2022-11-20T16:13:14;25.10;;;10.70;;
3698;SDS011;1865;50.918;7.092;2022-11-20T16:16:01;25.20;;;12.80;;
3698;SDS011;1865;50.918;7.092;2022-11-20T16:18:31;27.47;;;12.27;;
3698;SDS011;1865;50.918;7.092;2022-11-20T16:20:57;29.30;;;13.23;;
3698;SDS011;1865;50.918;7.092;2022-11-20T16:23:22;31.50;;;14.53;;
3698;SDS011;1865;50.918;7.092;2022-11-20T16:25:49;32.03;;;15.00;;
3698;SDS011;1865;50.918;7.092;2022-11-20T16:28:15;28.67;;;12.93;;
3698;SDS011;1865;50.918;7.092;2022-11-20T16:30:41;26.03;;;12.27;;
3698;SDS011;1865;50.918;7.092;2022-11-20T16:33:16;32.63;;;12.60;;
3698;SDS011;1865;50.918;7.092;2022-11-20T16:35:42;26.40;;;12.00;;